Time;durP1;ratioP1;P1;durP2;ratioP2;P2;SDS_P1;SDS_P2;PMS_P1;PMS_P2;Temp;Humidity;BMP_temperature;BMP_pressure;BME280_temperature;BME280_humidity;BME280_pressure;Samples;Min_cycle;Max_cycle;Signal;HPM_P1;HPM_P2
2021/10/27 00:01:45;;;;;;;22.33;16.17;;;10.60;99.90;;;;;;5074263;28;20202;-68
2021/10/27 00:04:12;;;;;;;23.70;16.70;;;10.60;99.90;;;;;;5087366;28;20258;-67
2021/10/27 00:06:39;;;;;;;22.90;16.47;;;10.60;99.90;;;;;;5076200;28;20205;-68
2021/10/27 00:09:06;;;;;;;24.80;16.57;;;10.50;99.90;;;;;;5093613;28;20231;-67
2021/10/27 00:11:33;;;;;;;25.83;16.77;;;10.50;99.90;;;;;;5076841;28;20216;-67
2021/10/27 00:14:01;;;;;;;24.03;16.33;;;10.50;99.90;;;;;;5073957;28;20655;-67
2021/10/27 00:16:28;;;;;;;22.33;16.53;;;10.50;99.90;;;;;;5073705;28;20221;-67
2021/10/27 00:18:55;;;;;;;22.10;16.13;;;10.50;99.90;;;;;;5083953;28;20299;-67
2021/10/27 00:21:22;;;;;;;22.53;17.43;;;10.50;99.90;;;;;;5074561;28;20211;-69
2021/10/27 00:23:49;;;;;;;24.50;16.90;;;10.40;99.90;;;;;;5075154;28;20205;-67
2021/10/27 00:26:16;;;;;;;23.30;16.80;;;10.40;99.90;;;;;;5082287;28;20201;-66
2021/10/27 00:28:43;;;;;;;27.37;17.03;;;10.40;99.90;;;;;;5084035;28;20654;-67
2021/10/27 00:31:11;;;;;;;28.27;18.27;;;10.40;99.90;;;;;;5073723;28;20217;-67
2021/10/27 00:33:38;;;;;;;23.47;17.17;;;10.40;99.90;;;;;;5073523;28;20201;-67
2021/10/27 00:36:05;;;;;;;30.17;19.17;;;10.40;99.90;;;;;;5083717;28;20248;-68
2021/10/27 00:38:32;;;;;;;24.33;16.77;;;10.40;99.90;;;;;;5073940;28;20212;-68
2021/10/27 00:40:59;;;;;;;23.83;16.67;;;10.40;99.90;;;;;;5073697;28;20710;-67
2021/10/27 00:43:26;;;;;;;25.10;17.23;;;10.40;99.90;;;;;;5079012;28;20743;-67
2021/10/27 00:45:53;;;;;;;22.60;16.33;;;10.40;99.90;;;;;;5079950;28;20299;-68
2021/10/27 00:48:21;;;;;;;27.53;17.53;;;10.40;99.90;;;;;;5094089;28;20289;-67
2021/10/27 00:50:48;;;;;;;20.77;15.60;;;10.40;99.90;;;;;;5092385;28;20217;-67
2021/10/27 00:53:15;;;;;;;26.87;18.30;;;10.40;99.90;;;;;;5079815;28;20322;-66
2021/10/27 00:55:42;;;;;;;24.77;17.00;;;10.40;99.90;;;;;;5073401;28;20677;-68
2021/10/27 00:58:09;;;;;;;23.63;16.80;;;10.50;99.90;;;;;;5088313;28;20324;-67
2021/10/27 01:00:36;;;;;;;23.20;16.93;;;10.50;99.90;;;;;;5082371;28;20224;-67
2021/10/27 01:03:03;;;;;;;23.47;16.13;;;10.50;99.90;;;;;;5076106;28;20212;-66
2021/10/27 01:05:31;;;;;;;23.50;15.73;;;10.50;99.90;;;;;;5075936;28;20234;-66
2021/10/27 01:07:59;;;;;;;25.73;16.53;;;10.50;99.90;;;;;;5077732;28;20296;-67
2021/10/27 01:10:26;;;;;;;25.80;16.07;;;10.50;99.90;;;;;;5086645;28;20215;-67
2021/10/27 01:12:53;;;;;;;23.33;15.97;;;10.50;99.90;;;;;;5073631;28;20201;-67
2021/10/27 01:15:20;;;;;;;19.27;15.17;;;10.40;99.90;;;;;;5092489;28;20209;-66
2021/10/27 01:17:47;;;;;;;21.67;16.03;;;10.40;99.90;;;;;;5073627;28;20229;-66
2021/10/27 01:20:15;;;;;;;27.00;16.00;;;10.30;99.90;;;;;;5075342;28;20209;-67
2021/10/27 01:22:42;;;;;;;23.47;16.10;;;10.30;99.90;;;;;;5082396;28;20211;-66
2021/10/27 01:25:11;;;;;;;22.63;15.80;;;10.30;99.90;;;;;;5075450;28;20201;-67
2021/10/27 01:27:40;;;;;;;23.67;15.93;;;10.20;99.90;;;;;;5076949;28;20622;-67
2021/10/27 01:30:12;;;;;;;23.83;15.13;;;10.20;99.90;;;;;;5074480;28;20676;-67
2021/10/27 01:32:39;;;;;;;22.23;15.37;;;10.20;99.90;;;;;;5074951;28;20685;-67
2021/10/27 01:35:07;;;;;;;23.53;16.87;;;10.20;99.90;;;;;;5084909;28;20264;-67
2021/10/27 01:37:36;;;;;;;21.63;16.20;;;10.10;99.90;;;;;;5074938;28;20222;-66
2021/10/27 01:40:05;;;;;;;24.57;16.30;;;10.10;99.90;;;;;;5073839;28;20220;-67
2021/10/27 01:42:31;;;;;;;22.60;15.83;;;10.00;99.90;;;;;;5079362;28;20787;-67
2021/10/27 01:44:58;;;;;;;20.53;15.80;;;10.00;99.90;;;;;;5072904;28;20257;-67
2021/10/27 01:47:25;;;;;;;24.77;16.27;;;10.00;99.90;;;;;;5077221;28;20207;-67
2021/10/27 01:49:53;;;;;;;27.03;16.47;;;10.00;99.90;;;;;;5086336;28;20224;-68
2021/10/27 01:52:20;;;;;;;24.17;16.63;;;9.90;99.90;;;;;;5090232;28;20238;-67
2021/10/27 01:54:48;;;;;;;23.10;16.03;;;9.90;99.90;;;;;;5072527;28;20265;-68
2021/10/27 01:57:15;;;;;;;20.20;16.30;;;9.90;99.90;;;;;;5083710;28;20232;-67
2021/10/27 01:59:42;;;;;;;26.47;17.17;;;9.80;99.90;;;;;;5078930;28;20303;-68
2021/10/27 02:02:09;;;;;;;22.87;16.13;;;9.80;99.90;;;;;;5081623;28;20232;-66
2021/10/27 02:04:36;;;;;;;24.57;16.23;;;9.80;99.90;;;;;;5071448;28;20248;-66
2021/10/27 02:07:03;;;;;;;23.80;16.70;;;9.80;99.90;;;;;;5080252;28;20215;-67
2021/10/27 02:09:31;;;;;;;23.27;16.30;;;9.70;99.90;;;;;;5076275;28;20209;-67
2021/10/27 02:11:59;;;;;;;20.97;15.57;;;9.80;99.90;;;;;;5070859;28;20213;-66
2021/10/27 02:14:26;;;;;;;21.47;16.50;;;9.70;99.90;;;;;;5071292;28;20205;-67
2021/10/27 02:16:53;;;;;;;25.83;17.00;;;9.70;99.90;;;;;;5085741;28;20298;-67
2021/10/27 02:19:19;;;;;;;25.87;16.17;;;9.70;99.90;;;;;;5070623;28;20201;-67
2021/10/27 02:21:46;;;;;;;24.27;15.97;;;9.70;99.90;;;;;;5078550;28;20619;-66
2021/10/27 02:24:13;;;;;;;23.87;16.60;;;9.70;99.90;;;;;;5081058;28;20228;-67
2021/10/27 02:26:40;;;;;;;23.83;16.33;;;9.70;99.90;;;;;;5077699;28;20202;-67
2021/10/27 02:29:08;;;;;;;24.90;16.80;;;9.70;99.90;;;;;;5071904;28;20209;-66
2021/10/27 02:31:35;;;;;;;21.70;16.67;;;9.80;99.90;;;;;;5076413;28;20207;-66
2021/10/27 02:34:02;;;;;;;21.83;16.37;;;9.70;99.90;;;;;;5072392;28;20658;-67
2021/10/27 02:36:29;;;;;;;24.97;17.33;;;9.70;99.90;;;;;;5091376;28;20204;-67
2021/10/27 02:38:56;;;;;;;22.97;16.23;;;9.70;99.90;;;;;;5072263;28;20225;-67
2021/10/27 02:41:23;;;;;;;25.50;17.10;;;9.60;99.90;;;;;;5070891;28;20217;-68
2021/10/27 02:43:49;;;;;;;23.90;16.57;;;9.70;99.90;;;;;;5079512;28;20210;-67
2021/10/27 02:46:18;;;;;;;24.93;17.73;;;9.60;99.90;;;;;;5084733;28;20200;-67
2021/10/27 02:48:45;;;;;;;24.40;16.97;;;9.60;99.90;;;;;;5086611;28;20470;-67
2021/10/27 02:51:12;;;;;;;24.53;16.77;;;9.60;99.90;;;;;;5073273;28;20209;-68
2021/10/27 02:53:39;;;;;;;22.77;15.70;;;9.50;99.90;;;;;;5077409;28;20265;-67
2021/10/27 02:56:06;;;;;;;24.03;16.80;;;9.50;99.90;;;;;;5071320;28;20689;-68
2021/10/27 02:58:33;;;;;;;24.17;17.17;;;9.50;99.90;;;;;;5070706;28;20214;-67
2021/10/27 03:01:00;;;;;;;23.93;17.03;;;9.50;99.90;;;;;;5083462;28;20232;-68
2021/10/27 03:03:28;;;;;;;25.73;17.53;;;9.50;99.90;;;;;;5083194;28;20646;-67
2021/10/27 03:05:55;;;;;;;27.10;17.50;;;9.50;99.90;;;;;;5070557;28;20236;-68
2021/10/27 03:08:22;;;;;;;28.50;17.87;;;9.40;99.90;;;;;;5075756;28;20200;-66
2021/10/27 03:10:49;;;;;;;25.13;17.30;;;9.40;99.90;;;;;;5090511;28;20211;-66
2021/10/27 03:13:16;;;;;;;21.77;17.13;;;9.50;99.90;;;;;;5087963;28;20204;-66
2021/10/27 03:15:43;;;;;;;25.93;17.07;;;9.50;99.90;;;;;;5083205;28;20208;-66
2021/10/27 03:18:10;;;;;;;24.33;16.93;;;9.40;99.90;;;;;;5074937;28;20736;-67
2021/10/27 03:20:38;;;;;;;22.37;17.00;;;9.40;99.90;;;;;;5079782;28;20196;-67
2021/10/27 03:23:05;;;;;;;24.53;16.23;;;9.30;99.90;;;;;;5074949;28;20237;-66
2021/10/27 03:25:32;;;;;;;27.73;18.10;;;9.40;99.90;;;;;;5075104;28;20205;-66
2021/10/27 03:27:59;;;;;;;24.33;17.53;;;9.30;99.90;;;;;;5087895;28;20549;-68
2021/10/27 03:30:28;;;;;;;27.47;18.03;;;9.30;99.90;;;;;;5075623;28;20209;-66
2021/10/27 03:32:55;;;;;;;24.00;17.23;;;9.30;99.90;;;;;;5076503;28;20565;-66
2021/10/27 03:35:22;;;;;;;23.90;17.63;;;9.30;99.90;;;;;;5088582;28;20197;-67
2021/10/27 03:37:51;;;;;;;25.33;17.80;;;9.20;99.90;;;;;;5080166;28;20237;-67
2021/10/27 03:40:18;;;;;;;26.23;17.40;;;9.20;99.90;;;;;;5077768;28;20209;-66
2021/10/27 03:42:45;;;;;;;25.90;17.60;;;9.30;99.90;;;;;;5074880;28;20232;-66
2021/10/27 03:45:12;;;;;;;23.20;17.60;;;9.20;99.90;;;;;;5074829;28;20209;-67
2021/10/27 03:47:39;;;;;;;25.40;16.67;;;9.20;99.90;;;;;;5077193;28;20292;-67
2021/10/27 03:50:08;;;;;;;25.87;17.10;;;9.30;99.90;;;;;;5094593;28;20559;-66
2021/10/27 03:52:35;;;;;;;24.37;16.77;;;9.20;99.90;;;;;;5074767;28;20658;-67
2021/10/27 03:55:03;;;;;;;26.63;17.30;;;9.20;99.90;;;;;;5083755;28;20205;-68
2021/10/27 03:57:30;;;;;;;27.73;17.97;;;9.20;99.90;;;;;;5078240;28;20240;-68
2021/10/27 03:59:58;;;;;;;28.00;17.13;;;9.20;99.90;;;;;;5074422;28;20233;-68
2021/10/27 04:02:25;;;;;;;24.20;17.57;;;9.20;99.90;;;;;;5094400;28;20204;-67
2021/10/27 04:04:52;;;;;;;24.87;16.77;;;9.20;99.90;;;;;;5076001;28;20209;-66
2021/10/27 04:07:19;;;;;;;26.20;16.97;;;9.20;99.90;;;;;;5084489;28;20288;-66
2021/10/27 04:09:46;;;;;;;22.40;16.73;;;9.10;99.90;;;;;;5088796;28;20757;-66
2021/10/27 04:12:14;;;;;;;24.70;17.37;;;9.10;99.90;;;;;;5093731;28;20215;-66
2021/10/27 04:14:41;;;;;;;24.37;16.80;;;9.10;99.90;;;;;;5092684;28;20215;-66
2021/10/27 04:17:08;;;;;;;22.20;17.30;;;9.10;99.90;;;;;;5073084;28;20213;-67
2021/10/27 04:19:35;;;;;;;24.33;17.00;;;9.10;99.90;;;;;;5073038;28;20219;-67
2021/10/27 04:22:02;;;;;;;24.43;17.47;;;9.10;99.90;;;;;;5074820;28;20256;-67
2021/10/27 04:24:29;;;;;;;23.50;15.80;;;9.00;99.90;;;;;;5074167;28;20213;-67
2021/10/27 04:26:56;;;;;;;26.17;17.17;;;9.10;99.90;;;;;;5075561;28;20207;-67
2021/10/27 04:29:24;;;;;;;25.13;18.10;;;9.00;99.90;;;;;;5073591;28;20775;-67
2021/10/27 04:31:51;;;;;;;25.70;16.93;;;9.00;99.90;;;;;;5083363;28;20591;-67
2021/10/27 04:34:18;;;;;;;25.07;17.67;;;9.00;99.90;;;;;;5076085;28;20300;-67
2021/10/27 04:36:45;;;;;;;24.30;17.50;;;8.90;99.90;;;;;;5092742;28;20239;-67
2021/10/27 04:39:11;;;;;;;27.80;17.43;;;8.90;99.90;;;;;;5073705;28;20722;-73
2021/10/27 04:41:38;;;;;;;23.20;16.10;;;8.90;99.90;;;;;;5086236;28;20200;-67
2021/10/27 04:44:05;;;;;;;23.43;17.23;;;8.90;99.90;;;;;;5084555;28;20678;-68
2021/10/27 04:46:34;;;;;;;25.53;18.67;;;8.90;99.90;;;;;;5084653;28;20291;-67
2021/10/27 04:49:01;;;;;;;27.27;17.83;;;8.90;99.90;;;;;;5089044;28;20200;-67
2021/10/27 04:51:28;;;;;;;25.50;18.10;;;8.90;99.90;;;;;;5082986;28;20296;-67
2021/10/27 04:53:55;;;;;;;26.30;17.03;;;8.90;99.90;;;;;;5083479;28;20292;-67
2021/10/27 04:56:21;;;;;;;28.47;17.80;;;8.90;99.90;;;;;;5075220;28;20251;-68
2021/10/27 04:58:48;;;;;;;24.43;17.60;;;8.80;99.90;;;;;;5084510;28;20311;-68
2021/10/27 05:01:15;;;;;;;25.00;17.80;;;8.80;99.90;;;;;;5084696;28;20224;-67
2021/10/27 05:03:45;;;;;;;24.33;17.13;;;8.80;99.90;;;;;;5079120;28;20658;-67
2021/10/27 05:06:12;;;;;;;28.17;16.83;;;8.80;99.90;;;;;;5072681;28;20424;-67
2021/10/27 05:08:39;;;;;;;24.40;17.47;;;8.80;99.90;;;;;;5080385;28;20196;-67
2021/10/27 05:11:06;;;;;;;25.67;18.43;;;8.80;99.90;;;;;;5090805;28;20201;-68
2021/10/27 05:13:33;;;;;;;25.10;18.17;;;8.70;99.90;;;;;;5076241;28;20201;-67
2021/10/27 05:16:00;;;;;;;24.90;17.63;;;8.70;99.90;;;;;;5076617;28;20754;-68
2021/10/27 05:18:27;;;;;;;27.60;17.80;;;8.70;99.90;;;;;;5090050;28;20288;-67
2021/10/27 05:20:55;;;;;;;28.10;17.63;;;8.70;99.90;;;;;;5082195;28;20213;-67
2021/10/27 05:23:22;;;;;;;24.73;17.70;;;8.70;99.90;;;;;;5081765;28;20528;-68
2021/10/27 05:25:49;;;;;;;28.13;18.43;;;8.70;99.90;;;;;;5082435;28;20710;-68
2021/10/27 05:28:16;;;;;;;26.90;18.87;;;8.70;99.90;;;;;;5072982;28;20211;-67
2021/10/27 05:30:43;;;;;;;26.77;17.20;;;8.70;99.90;;;;;;5087224;28;20590;-67
2021/10/27 05:33:10;;;;;;;28.47;17.73;;;8.70;99.90;;;;;;5083390;28;20236;-67
2021/10/27 05:35:37;;;;;;;22.97;16.80;;;8.70;99.90;;;;;;5091805;28;20205;-67
2021/10/27 05:38:05;;;;;;;24.17;18.07;;;8.80;99.90;;;;;;5091891;28;20217;-67
2021/10/27 05:40:32;;;;;;;26.77;17.60;;;8.80;99.90;;;;;;5091922;28;20204;-67
2021/10/27 05:42:59;;;;;;;25.83;18.33;;;8.80;99.90;;;;;;5085556;28;20205;-66
2021/10/27 05:45:27;;;;;;;28.23;18.37;;;8.80;99.90;;;;;;5081745;28;20311;-68
2021/10/27 05:47:57;;;;;;;26.10;19.33;;;8.80;99.90;;;;;;5089090;28;20234;-67
2021/10/27 05:50:29;;;;;;;28.20;18.67;;;8.80;99.90;;;;;;5082368;28;20586;-67
2021/10/27 05:55:42;;;;;;;27.23;17.43;;;8.90;99.90;;;;;;5084111;28;20290;-67
2021/10/27 05:58:11;;;;;;;26.33;18.57;;;8.90;99.90;;;;;;5086260;28;20251;-68
2021/10/27 06:00:38;;;;;;;24.17;17.27;;;8.90;99.90;;;;;;5085608;28;20239;-71
2021/10/27 06:03:05;;;;;;;26.90;17.63;;;9.00;99.90;;;;;;5092098;28;20285;-71
2021/10/27 06:05:32;;;;;;;25.93;18.33;;;9.00;99.90;;;;;;5089983;28;20200;-71
2021/10/27 06:08:00;;;;;;;25.57;17.53;;;9.10;99.90;;;;;;5091326;28;20209;-71
2021/10/27 06:10:28;;;;;;;28.20;18.30;;;9.10;99.90;;;;;;5092056;28;20756;-72
2021/10/27 06:13:00;;;;;;;25.57;18.17;;;9.10;99.90;;;;;;5089615;28;20212;-71
2021/10/27 06:15:27;;;;;;;27.77;17.73;;;9.20;99.90;;;;;;5092895;28;20197;-72
2021/10/27 06:17:54;;;;;;;24.70;17.83;;;9.20;99.90;;;;;;5091254;28;20248;-71
2021/10/27 06:20:21;;;;;;;27.30;18.37;;;9.30;99.90;;;;;;5091924;28;20653;-71
2021/10/27 06:22:48;;;;;;;28.57;18.17;;;9.30;99.90;;;;;;5082500;28;20209;-73
2021/10/27 06:25:15;;;;;;;26.30;17.90;;;9.30;99.90;;;;;;5085691;28;20689;-72
2021/10/27 06:27:45;;;;;;;23.07;18.33;;;9.50;99.90;;;;;;5083694;28;20719;-71
2021/10/27 06:30:16;;;;;;;28.50;18.93;;;9.50;99.90;;;;;;5074319;28;20613;-72
2021/10/27 06:32:50;;;;;;;27.50;18.20;;;9.60;99.90;;;;;;5088054;28;20262;-71
2021/10/27 06:35:20;;;;;;;26.90;16.53;;;9.70;99.90;;;;;;5083924;28;20208;-72
2021/10/27 06:38:13;;;;;;;26.57;18.73;;;9.90;99.90;;;;;;5087998;28;20211;-69
2021/10/27 06:46:37;;;;;;;27.17;17.07;;;10.80;99.90;;;;;;5004728;28;20341;-67
2021/10/27 06:49:05;;;;;;;28.90;16.83;;;11.00;99.90;;;;;;5073670;28;20215;-69
2021/10/27 06:51:32;;;;;;;24.13;16.03;;;11.10;99.90;;;;;;5081385;28;20292;-71
2021/10/27 06:53:59;;;;;;;23.30;16.50;;;11.10;99.90;;;;;;5072316;28;20204;-70
2021/10/27 06:56:27;;;;;;;26.87;17.60;;;11.00;99.90;;;;;;5072115;28;20634;-69
2021/10/27 06:58:59;;;;;;;25.73;18.83;;;11.00;99.90;;;;;;5072717;28;20312;-70
2021/10/27 07:01:30;;;;;;;22.00;16.80;;;11.00;99.90;;;;;;5081070;28;20205;-71
2021/10/27 07:04:27;;;;;;;24.03;17.13;;;11.10;99.90;;;;;;5091650;28;20216;-69
2021/10/27 07:15:16;;;;;;;22.07;16.20;;;11.40;99.90;;;;;;5077569;28;20302;-72
2021/10/27 07:17:51;;;;;;;21.00;15.63;;;11.60;99.90;;;;;;5091427;28;20600;-69
2021/10/27 07:20:19;;;;;;;25.77;15.73;;;11.70;99.90;;;;;;5083560;28;20588;-71
2021/10/27 07:22:46;;;;;;;24.40;16.40;;;11.80;99.90;;;;;;5076976;28;20205;-70
2021/10/27 07:25:15;;;;;;;24.40;16.53;;;12.00;99.90;;;;;;5088334;28;20588;-68
2021/10/27 07:27:42;;;;;;;19.97;15.33;;;12.20;99.90;;;;;;5089969;28;20228;-68
2021/10/27 07:30:10;;;;;;;23.47;15.50;;;12.30;99.90;;;;;;5087900;28;20545;-67
2021/10/27 07:32:38;;;;;;;22.77;15.57;;;12.40;99.90;;;;;;5088420;28;20232;-67
2021/10/27 07:35:16;;;;;;;27.30;15.87;;;12.60;99.90;;;;;;5085997;28;20215;-68
2021/10/27 07:40:35;;;;;;;21.33;15.07;;;12.60;99.90;;;;;;5087901;28;20203;-68
2021/10/27 07:43:07;;;;;;;23.77;16.03;;;12.70;99.90;;;;;;5082550;28;20240;-69
2021/10/27 07:45:37;;;;;;;21.27;15.07;;;12.70;99.90;;;;;;5084638;28;20209;-69
2021/10/27 07:48:05;;;;;;;21.13;14.87;;;12.90;99.90;;;;;;5084661;28;20213;-70
2021/10/27 07:50:35;;;;;;;21.60;14.30;;;13.10;99.90;;;;;;5077950;28;20241;-68
2021/10/27 07:53:05;;;;;;;21.40;15.13;;;13.30;99.90;;;;;;5077921;28;20565;-68
2021/10/27 07:55:33;;;;;;;25.33;15.50;;;13.40;99.90;;;;;;5071796;28;20231;-69
2021/10/27 07:58:01;;;;;;;24.50;16.17;;;13.60;99.90;;;;;;5086198;28;20228;-70
2021/10/27 08:00:29;;;;;;;20.07;14.40;;;13.80;99.90;;;;;;5090215;28;20673;-67
2021/10/27 08:03:00;;;;;;;21.40;16.30;;;13.90;99.90;;;;;;5107337;28;20211;-68
2021/10/27 08:05:29;;;;;;;18.40;14.00;;;13.90;99.90;;;;;;5097400;28;20239;-70
2021/10/27 08:07:58;;;;;;;18.07;14.50;;;13.70;99.90;;;;;;5095692;28;20208;-68
2021/10/27 08:10:26;;;;;;;18.03;13.50;;;13.60;99.90;;;;;;5102300;28;20203;-71
2021/10/27 08:12:55;;;;;;;18.60;13.83;;;13.40;99.90;;;;;;5102559;28;20322;-71
2021/10/27 08:15:22;;;;;;;19.00;13.80;;;13.30;99.90;;;;;;5101015;28;20227;-69
2021/10/27 08:17:49;;;;;;;20.80;13.53;;;13.20;99.90;;;;;;5104806;28;20291;-70
2021/10/27 08:20:18;;;;;;;21.53;13.17;;;13.30;99.90;;;;;;5114067;28;20700;-69
2021/10/27 08:22:47;;;;;;;19.43;12.87;;;13.50;99.90;;;;;;5113736;28;20206;-69
2021/10/27 08:25:20;;;;;;;18.53;12.90;;;13.80;99.90;;;;;;5109823;28;20210;-69
2021/10/27 08:27:48;;;;;;;19.27;13.40;;;14.00;99.90;;;;;;5113919;28;20253;-68
2021/10/27 08:30:18;;;;;;;17.43;12.87;;;14.20;99.90;;;;;;5103439;28;20276;-68
2021/10/27 08:32:49;;;;;;;20.13;12.57;;;14.30;99.90;;;;;;5106203;28;20246;-69
2021/10/27 08:35:16;;;;;;;17.17;12.50;;;14.50;99.90;;;;;;5106234;28;20724;-69
2021/10/27 08:37:46;;;;;;;17.90;11.43;;;14.70;99.90;;;;;;5106353;28;20645;-69
2021/10/27 08:40:16;;;;;;;16.27;11.87;;;15.10;99.90;;;;;;5102731;28;20221;-67
2021/10/27 08:42:44;;;;;;;18.73;12.07;;;15.60;99.90;;;;;;5110663;28;20208;-67
2021/10/27 08:45:11;;;;;;;17.83;12.23;;;16.00;99.90;;;;;;5110646;28;20200;-68
2021/10/27 08:47:39;;;;;;;17.90;12.57;;;16.60;99.90;;;;;;5108859;28;20215;-66
2021/10/27 08:50:09;;;;;;;19.47;12.40;;;17.00;99.90;;;;;;5099130;28;20625;-67
2021/10/27 08:52:36;;;;;;;16.33;12.43;;;17.10;99.90;;;;;;5107577;28;20656;-66
2021/10/27 08:55:04;;;;;;;23.10;12.53;;;17.10;99.90;;;;;;5111972;28;20291;-66
2021/10/27 08:57:32;;;;;;;17.00;13.03;;;17.10;99.90;;;;;;5104112;28;20369;-67
2021/10/27 09:00:05;;;;;;;19.63;12.53;;;17.10;99.90;;;;;;5100647;28;20618;-67
2021/10/27 09:02:57;;;;;;;17.40;11.77;;;17.10;99.90;;;;;;5105564;28;20576;-67
2021/10/27 09:33:31;;;;;;;15.07;10.25;;;24.00;86.40;;;;;;5063502;28;20204;-66
2021/10/27 09:34:19;;;;;;;11.68;9.45;;;27.90;50.60;;;;;;5063989;28;20212;-68
2021/10/27 09:55:27;;;;;;;12.18;9.63;;;23.10;58.10;;;;;;5060081;28;20684;-67
2021/10/27 09:56:56;;;;;;;13.85;9.27;;;21.90;59.40;;;;;;5062950;28;20232;-66
2021/10/27 10:05:04;;;;;;;12.15;8.57;;;20.20;63.40;;;;;;5067231;28;20704;-67
2021/10/27 10:07:31;;;;;;;11.60;8.38;;;19.50;65.10;;;;;;5064029;28;20682;-68
2021/10/27 10:09:58;;;;;;;14.45;9.20;;;18.90;67.00;;;;;;5060125;28;20320;-70
2021/10/27 10:12:26;;;;;;;10.82;8.13;;;18.40;69.10;;;;;;5065982;28;20716;-68
2021/10/27 10:14:53;;;;;;;13.13;8.63;;;18.00;71.40;;;;;;5065454;28;20557;-68
2021/10/27 10:17:22;;;;;;;9.97;7.80;;;17.70;73.20;;;;;;5056400;28;20202;-68
2021/10/27 10:19:50;;;;;;;9.63;7.50;;;17.60;74.80;;;;;;5060544;28;20232;-69
2021/10/27 10:22:28;;;;;;;12.93;7.43;;;17.80;75.20;;;;;;5050698;28;20209;-67
2021/10/27 10:24:55;;;;;;;12.60;7.20;;;17.90;74.50;;;;;;5051413;28;20681;-68
2021/10/27 10:27:36;;;;;;;13.13;7.57;;;17.90;74.30;;;;;;5053722;28;20217;-70
2021/10/27 10:30:24;;;;;;;13.73;6.90;;;17.80;74.80;;;;;;5049266;28;20214;-71
2021/10/27 10:33:02;;;;;;;10.53;6.43;;;17.60;75.00;;;;;;5054039;28;20198;-70
2021/10/27 10:35:42;;;;;;;10.93;7.17;;;17.40;76.30;;;;;;5050476;28;20213;-70
2021/10/27 10:38:32;;;;;;;12.90;8.30;;;17.30;77.30;;;;;;5047401;28;20221;-69
2021/10/27 11:23:31;;;;;;;10.10;7.80;;;30.40;47.70;;;;;;5036590;28;20295;-70
2021/10/27 11:26:16;;;;;;;10.98;7.53;;;31.50;45.40;;;;;;5052301;28;20202;-71
2021/10/27 11:39:44;;;;;;;12.10;7.93;;;34.50;37.90;;;;;;5051630;28;20744;-71
2021/10/27 11:42:23;;;;;;;9.88;7.20;;;33.00;38.90;;;;;;5052034;28;20623;-71
2021/10/27 11:44:53;;;;;;;8.15;6.90;;;31.50;39.90;;;;;;5050481;28;20579;-72
2021/10/27 11:47:34;;;;;;;8.85;6.80;;;30.10;41.70;;;;;;5047362;28;20317;-73
2021/10/27 11:50:00;;;;;;;11.88;7.55;;;28.70;43.80;;;;;;5034616;28;20218;-71
2021/10/27 11:52:33;;;;;;;10.32;6.88;;;27.60;45.00;;;;;;5048937;28;20220;-71
2021/10/27 11:55:01;;;;;;;9.23;7.03;;;26.70;46.90;;;;;;5051576;28;20298;-71
2021/10/27 11:57:32;;;;;;;7.93;6.57;;;25.80;48.20;;;;;;5051457;28;20257;-70
2021/10/27 11:59:59;;;;;;;8.95;6.90;;;24.80;49.90;;;;;;5051368;28;20292;-71
2021/10/27 12:02:27;;;;;;;10.18;6.05;;;23.90;51.60;;;;;;5044375;28;20298;-71
2021/10/27 12:04:55;;;;;;;9.43;6.70;;;23.10;52.70;;;;;;5048312;28;20211;-70
2021/10/27 12:07:38;;;;;;;8.48;5.65;;;22.40;54.10;;;;;;5049661;28;20229;-71
2021/10/27 12:10:16;;;;;;;7.28;5.20;;;21.60;55.40;;;;;;5040528;28;20710;-72
2021/10/27 12:12:50;;;;;;;8.85;5.97;;;20.90;56.70;;;;;;5043981;28;20477;-70
2021/10/27 12:18:08;;;;;;;8.45;5.53;;;19.70;59.30;;;;;;5016134;28;20202;-71
2021/10/27 12:20:40;;;;;;;8.05;6.07;;;19.30;60.70;;;;;;5046171;28;20565;-71
2021/10/27 12:23:08;;;;;;;10.13;5.70;;;19.00;61.90;;;;;;5046276;28;20221;-71
2021/10/27 12:25:37;;;;;;;9.43;5.95;;;18.70;62.80;;;;;;5050751;28;20221;-69
2021/10/27 12:28:06;;;;;;;7.55;5.57;;;18.40;63.90;;;;;;5050859;28;20440;-71
2021/10/27 12:30:38;;;;;;;9.57;6.13;;;18.10;65.10;;;;;;5050089;28;20694;-69
2021/10/27 12:33:06;;;;;;;8.73;6.07;;;17.70;66.30;;;;;;5051625;28;20210;-71
2021/10/27 12:35:33;;;;;;;11.27;6.10;;;;;;;;;;5052350;28;20297;-72
2021/10/27 12:38:12;;;;;;;9.10;5.10;;;17.20;68.00;;;;;;5051902;28;20231;-71
2021/10/27 12:40:42;;;;;;;8.27;5.67;;;17.00;69.40;;;;;;5052951;28;20210;-73
2021/10/27 12:43:11;;;;;;;9.47;5.20;;;16.90;70.50;;;;;;5051965;28;20213;-73
2021/10/27 12:45:39;;;;;;;8.77;5.70;;;16.80;71.50;;;;;;5046109;28;20570;-70
2021/10/27 12:48:08;;;;;;;8.23;5.60;;;16.70;72.00;;;;;;5045923;28;20310;-71
2021/10/27 12:50:36;;;;;;;8.47;5.70;;;16.50;72.80;;;;;;5046851;28;20695;-72
2021/10/27 12:53:06;;;;;;;11.83;6.23;;;16.30;73.70;;;;;;5052109;28;20233;-74
2021/10/27 12:55:35;;;;;;;8.47;5.23;;;16.20;74.70;;;;;;5051417;28;20290;-71
2021/10/27 12:58:07;;;;;;;8.00;5.57;;;16.20;75.70;;;;;;5051811;28;20230;-73
2021/10/27 13:00:50;;;;;;;6.93;5.27;;;16.10;76.60;;;;;;5045345;28;20236;-70
2021/10/27 13:03:47;;;;;;;11.67;6.03;;;16.00;77.50;;;;;;5052206;28;20202;-67
2021/10/27 13:12:16;;;;;;;7.90;5.07;;;16.00;80.00;;;;;;5051749;28;20221;-69
2021/10/27 13:15:05;;;;;;;10.10;5.90;;;16.10;80.30;;;;;;5047560;28;20687;-69
2021/10/27 13:20:49;;;;;;;10.07;5.50;;;16.30;80.30;;;;;;5006036;28;20241;-68
2021/10/27 13:23:39;;;;;;;7.90;5.10;;;16.20;80.20;;;;;;5043573;28;20670;-68
2021/10/27 13:31:36;;;;;;;11.37;4.97;;;15.90;81.00;;;;;;5011277;28;20230;-71
2021/10/27 13:34:03;;;;;;;8.33;5.13;;;15.80;81.90;;;;;;5050846;28;20237;-70
2021/10/27 13:36:30;;;;;;;6.80;4.60;;;15.80;82.40;;;;;;5050046;28;20293;-69
2021/10/27 13:38:59;;;;;;;9.57;4.40;;;15.70;82.80;;;;;;5047736;28;20212;-70
2021/10/27 13:41:26;;;;;;;5.27;4.70;;;15.60;82.70;;;;;;5047884;28;20667;-70
2021/10/27 13:43:55;;;;;;;10.00;4.87;;;15.60;83.20;;;;;;5042432;28;20242;-70
2021/10/27 14:08:15;;;;;;;9.13;4.97;;;15.00;88.70;;;;;;5049845;28;20273;-69
2021/10/27 14:10:45;;;;;;;8.77;5.60;;;15.00;89.50;;;;;;5053499;28;20680;-68
2021/10/27 14:13:20;;;;;;;8.27;4.83;;;14.90;90.00;;;;;;5053258;28;20206;-70
2021/10/27 14:16:09;;;;;;;7.43;5.57;;;14.90;90.20;;;;;;5049220;28;20226;-69
2021/10/27 14:18:47;;;;;;;9.50;5.00;;;14.80;90.50;;;;;;5054806;28;20616;-69
2021/10/27 14:40:40;;;;;;;6.97;5.07;;;14.70;92.20;;;;;;5051727;28;20279;-69
2021/10/27 15:21:35;;;;;;;14.87;7.77;;;14.40;94.20;;;;;;5047918;28;20690;-70
2021/10/27 15:24:15;;;;;;;13.83;7.70;;;14.40;94.20;;;;;;5052775;28;20381;-70
2021/10/27 15:29:36;;;;;;;12.47;7.03;;;14.40;94.50;;;;;;5051020;28;20201;-70
2021/10/27 15:32:23;;;;;;;11.50;6.87;;;14.40;94.60;;;;;;5049147;28;20342;-69
2021/10/27 15:34:57;;;;;;;15.03;7.67;;;14.40;94.80;;;;;;5044296;28;20206;-68
2021/10/27 15:43:06;;;;;;;13.80;7.20;;;14.30;95.30;;;;;;5051365;28;20216;-70
2021/10/27 15:45:43;;;;;;;14.20;7.30;;;14.20;95.50;;;;;;5050368;28;20205;-73
2021/10/27 15:51:04;;;;;;;15.57;7.10;;;14.20;95.90;;;;;;5024690;28;20273;-71
2021/10/27 15:53:31;;;;;;;12.20;7.33;;;14.20;96.10;;;;;;5042536;28;20201;-69
2021/10/27 15:55:58;;;;;;;13.77;6.80;;;14.20;96.20;;;;;;5040001;28;20751;-71
2021/10/27 15:58:27;;;;;;;12.30;6.83;;;14.20;96.30;;;;;;5045479;28;20289;-68
2021/10/27 16:00:54;;;;;;;15.90;7.60;;;14.20;96.50;;;;;;5038367;28;20195;-69
2021/10/27 16:03:21;;;;;;;15.43;7.27;;;14.20;96.70;;;;;;5052131;28;20210;-70
2021/10/27 16:05:50;;;;;;;13.77;7.83;;;14.20;96.80;;;;;;5048376;28;20202;-69
2021/10/27 16:08:21;;;;;;;12.40;7.57;;;14.10;96.80;;;;;;5053406;28;20670;-70
2021/10/27 16:10:50;;;;;;;12.50;7.10;;;14.10;96.90;;;;;;5043798;28;20648;-69
2021/10/27 16:13:17;;;;;;;13.87;7.00;;;14.20;97.10;;;;;;5050582;28;20214;-68
2021/10/27 16:15:56;;;;;;;14.17;7.00;;;14.10;97.20;;;;;;5051829;28;20655;-70
2021/10/27 16:18:23;;;;;;;14.57;8.43;;;14.10;97.30;;;;;;5036255;28;20205;-70
2021/10/27 16:20:50;;;;;;;11.87;7.10;;;14.20;97.40;;;;;;5041037;28;20221;-70
2021/10/27 16:23:17;;;;;;;12.43;6.97;;;14.10;97.50;;;;;;5049816;28;20210;-69
2021/10/27 16:25:45;;;;;;;12.23;6.93;;;14.10;97.50;;;;;;5043919;28;20207;-69
2021/10/27 16:28:13;;;;;;;11.83;7.10;;;14.10;97.60;;;;;;5045861;28;21325;-70
2021/10/27 16:30:41;;;;;;;10.50;7.10;;;14.10;97.70;;;;;;5052116;28;20229;-69
2021/10/27 16:33:09;;;;;;;13.20;7.10;;;14.10;97.70;;;;;;5052371;28;20243;-69
2021/10/27 16:35:36;;;;;;;18.87;7.97;;;14.10;97.80;;;;;;5052080;28;20655;-69
2021/10/27 16:38:04;;;;;;;13.10;7.43;;;14.10;97.90;;;;;;5051640;28;20210;-68